Time;durP1;ratioP1;P1;durP2;ratioP2;P2;SDS_P1;SDS_P2;PMS_P1;PMS_P2;Temp;Humidity;BMP_temperature;BMP_pressure;BME280_temperature;BME280_humidity;BME280_pressure;Samples;Min_cycle;Max_cycle;Signal;HPM_P1;HPM_P2
2023/01/27 00:00:12;;;;;;;30.35;21.25;;;6.40;99.90;;;;;;5098976;28;20101;-77
2023/01/27 00:02:41;;;;;;;27.52;22.20;;;6.40;99.90;;;;;;5099300;28;20040;-77
2023/01/27 00:05:09;;;;;;;28.52;21.38;;;6.40;99.90;;;;;;5099240;28;20029;-77
2023/01/27 00:07:35;;;;;;;32.80;22.88;;;6.40;99.90;;;;;;5098353;28;20082;-77
2023/01/27 00:10:01;;;;;;;31.90;23.05;;;6.30;99.90;;;;;;5099163;28;20032;-77
2023/01/27 00:15:13;;;;;;;31.90;23.88;;;6.40;99.90;;;;;;5098998;28;20046;-76
2023/01/27 00:17:39;;;;;;;29.95;22.88;;;6.40;99.90;;;;;;5098858;28;20039;-78
2023/01/27 00:20:06;;;;;;;24.90;22.00;;;6.60;99.90;;;;;;5099191;28;20072;-77
2023/01/27 00:25:16;;;;;;;23.27;20.10;;;6.30;99.90;;;;;;5099042;28;20138;-77
2023/01/27 00:27:42;;;;;;;26.35;19.90;;;6.30;99.90;;;;;;5098931;28;20043;-77
2023/01/27 00:30:09;;;;;;;22.17;19.23;;;6.40;99.90;;;;;;5098732;28;20044;-77
2023/01/27 00:35:19;;;;;;;21.70;16.25;;;6.30;99.90;;;;;;5098369;28;20127;-77
2023/01/27 00:37:46;;;;;;;19.38;16.40;;;6.30;99.90;;;;;;5098291;28;20087;-77
2023/01/27 00:40:13;;;;;;;21.88;16.10;;;6.20;99.90;;;;;;5099041;28;20436;-77
2023/01/27 00:42:39;;;;;;;19.17;14.60;;;6.20;99.90;;;;;;5115083;28;20055;-77
2023/01/27 00:47:51;;;;;;;15.60;13.75;;;6.30;99.90;;;;;;5098029;28;20448;-77
2023/01/27 00:50:18;;;;;;;14.52;13.05;;;6.20;99.90;;;;;;5097209;28;20044;-77
2023/01/27 00:52:44;;;;;;;20.02;11.90;;;6.20;99.90;;;;;;5097238;28;20095;-77
2023/01/27 00:55:11;;;;;;;14.05;12.38;;;6.30;99.90;;;;;;5098735;28;20036;-77
2023/01/27 00:57:37;;;;;;;14.50;11.35;;;6.30;99.90;;;;;;5098436;28;20379;-77
2023/01/27 01:00:04;;;;;;;15.10;11.65;;;6.40;99.90;;;;;;5098422;28;20082;-77
2023/01/27 01:02:30;;;;;;;13.52;12.02;;;6.40;99.90;;;;;;5097384;28;20113;-77
2023/01/27 01:04:55;;;;;;;14.07;10.80;;;6.40;99.90;;;;;;5098443;28;20040;-79
2023/01/27 01:07:21;;;;;;;16.85;11.10;;;6.40;99.90;;;;;;5098045;28;20132;-77
2023/01/27 01:09:47;;;;;;;14.02;10.38;;;6.30;99.90;;;;;;5113835;28;20044;-76
2023/01/27 01:12:12;;;;;;;11.55;9.77;;;6.20;99.90;;;;;;5098188;28;20032;-77
2023/01/27 01:14:38;;;;;;;11.10;9.40;;;6.20;99.90;;;;;;5097829;28;20036;-77
2023/01/27 01:17:04;;;;;;;14.93;9.40;;;6.30;99.90;;;;;;5098031;28;20036;-77
2023/01/27 01:19:30;;;;;;;10.35;8.52;;;6.30;99.90;;;;;;5098020;28;20090;-77
2023/01/27 01:21:55;;;;;;;13.75;8.35;;;6.10;99.90;;;;;;5098183;28;20114;-77
2023/01/27 01:24:21;;;;;;;9.45;6.95;;;6.20;99.90;;;;;;5097428;28;20079;-77
2023/01/27 01:26:47;;;;;;;8.65;6.65;;;6.10;99.90;;;;;;5097953;28;20039;-77
2023/01/27 01:29:12;;;;;;;9.70;6.65;;;6.10;99.90;;;;;;5098062;28;20036;-77
2023/01/27 01:31:38;;;;;;;8.90;7.40;;;6.10;99.90;;;;;;5079466;28;20041;-77
2023/01/27 01:34:04;;;;;;;12.43;8.25;;;6.20;99.90;;;;;;5097475;28;20093;-77
2023/01/27 01:36:29;;;;;;;13.15;8.27;;;6.30;99.90;;;;;;5096864;28;20044;-77
2023/01/27 01:38:56;;;;;;;9.65;8.10;;;6.30;99.90;;;;;;5097458;28;20052;-76
2023/01/27 01:41:22;;;;;;;12.70;8.23;;;6.20;99.90;;;;;;5097925;28;20040;-77
2023/01/27 01:43:49;;;;;;;9.35;8.40;;;6.20;99.90;;;;;;5096955;28;20114;-78
2023/01/27 01:46:16;;;;;;;10.90;8.02;;;6.20;99.90;;;;;;5097443;28;20433;-77
2023/01/27 01:49:01;;;;;;;11.15;7.65;;;6.30;99.90;;;;;;5097834;28;20486;-77
2023/01/27 01:51:38;;;;;;;10.23;8.02;;;6.40;99.90;;;;;;5097430;28;20098;-77
2023/01/27 01:54:27;;;;;;;7.32;6.63;;;6.50;99.90;;;;;;5098022;28;20036;-78
2023/01/27 01:56:59;;;;;;;6.20;4.82;;;6.40;99.90;;;;;;5097780;28;20036;-78
2023/01/27 01:59:31;;;;;;;10.73;5.60;;;6.30;99.90;;;;;;5097923;28;20032;-77
2023/01/27 02:02:01;;;;;;;8.82;5.10;;;6.20;99.90;;;;;;5097571;28;20053;-78
2023/01/27 02:04:33;;;;;;;7.20;4.88;;;6.20;99.90;;;;;;5098268;28;20075;-78
2023/01/27 02:07:10;;;;;;;5.30;4.80;;;6.20;99.90;;;;;;5098411;28;20040;-78
2023/01/27 02:09:37;;;;;;;6.55;4.88;;;6.30;99.90;;;;;;5097904;28;20085;-77
2023/01/27 02:12:04;;;;;;;6.45;4.88;;;6.30;99.90;;;;;;5097576;28;20463;-78
2023/01/27 02:14:30;;;;;;;8.90;5.22;;;6.20;99.90;;;;;;5096270;28;20044;-77
2023/01/27 02:16:57;;;;;;;6.72;5.00;;;6.10;99.90;;;;;;5097220;28;20364;-77
2023/01/27 02:19:55;;;;;;;8.85;5.13;;;6.10;99.90;;;;;;5097573;28;20043;-77
2023/01/27 02:22:44;;;;;;;8.27;4.50;;;6.10;99.90;;;;;;5097495;28;20111;-78
2023/01/27 02:25:31;;;;;;;5.07;3.92;;;6.10;99.90;;;;;;5097372;28;20119;-77
2023/01/27 02:27:56;;;;;;;6.72;4.07;;;6.10;99.90;;;;;;5097172;28;20512;-77
2023/01/27 02:30:23;;;;;;;6.30;3.50;;;6.20;99.90;;;;;;5095899;28;20076;-77
2023/01/27 02:32:48;;;;;;;7.30;3.60;;;6.20;99.90;;;;;;5101383;28;20033;-77
2023/01/27 02:35:22;;;;;;;6.47;2.88;;;6.10;99.90;;;;;;5100341;28;20032;-77
2023/01/27 02:37:50;;;;;;;3.25;2.67;;;6.00;99.90;;;;;;5100866;28;20048;-77
2023/01/27 02:40:17;;;;;;;4.05;2.30;;;6.00;99.90;;;;;;5101348;28;20410;-77
2023/01/27 02:42:43;;;;;;;8.18;3.28;;;6.00;99.90;;;;;;5100763;28;20040;-77
2023/01/27 02:45:09;;;;;;;5.22;3.10;;;6.10;99.90;;;;;;5101218;28;20119;-77
2023/01/27 02:47:34;;;;;;;5.93;2.95;;;6.10;99.90;;;;;;5100492;28;20040;-77
2023/01/27 02:50:00;;;;;;;4.65;3.00;;;6.10;99.90;;;;;;5100404;28;20043;-77
2023/01/27 02:52:26;;;;;;;3.55;2.50;;;6.10;99.90;;;;;;5099794;28;20043;-77
2023/01/27 02:54:51;;;;;;;5.22;2.50;;;6.00;99.90;;;;;;5100795;28;20032;-77
2023/01/27 02:57:17;;;;;;;4.40;2.60;;;6.00;99.90;;;;;;5099381;28;20040;-77
2023/01/27 02:59:43;;;;;;;4.97;2.70;;;6.00;99.90;;;;;;5100332;28;20036;-78
2023/01/27 03:02:13;;;;;;;3.35;2.60;;;6.00;99.90;;;;;;5100788;28;20040;-77
2023/01/27 03:04:39;;;;;;;6.38;3.30;;;6.10;99.90;;;;;;5100357;28;20051;-77
2023/01/27 03:07:05;;;;;;;7.40;3.45;;;6.10;99.90;;;;;;5100191;28;20032;-77
2023/01/27 03:09:31;;;;;;;6.80;3.70;;;6.00;99.90;;;;;;5100316;28;20075;-78
2023/01/27 03:20:10;;;;;;;7.15;2.78;;;6.20;99.90;;;;;;5120803;28;20043;-77
2023/01/27 03:22:36;;;;;;;6.90;2.30;;;6.00;99.90;;;;;;5119294;28;20040;-77
2023/01/27 03:25:01;;;;;;;10.07;2.25;;;6.00;99.90;;;;;;5120718;28;20038;-77
2023/01/27 03:27:27;;;;;;;7.00;1.63;;;5.90;99.90;;;;;;5120889;28;20036;-77
2023/01/27 03:29:55;;;;;;;2.70;1.38;;;5.80;99.90;;;;;;5119988;28;20039;-77
2023/01/27 03:32:26;;;;;;;4.07;1.73;;;5.60;99.90;;;;;;5119111;28;20413;-77
2023/01/27 03:34:52;;;;;;;3.88;1.63;;;5.70;99.90;;;;;;5119487;28;20039;-77
2023/01/27 03:48:20;;;;;;;2.20;2.00;;;6.10;99.90;;;;;;5120347;28;20051;-76
2023/01/27 03:50:51;;;;;;;3.45;2.30;;;6.00;99.90;;;;;;5120230;27;20066;-77
2023/01/27 03:53:21;;;;;;;2.72;2.00;;;5.90;99.90;;;;;;5120131;28;20084;-77
2023/01/27 03:55:47;;;;;;;3.88;1.83;;;5.90;99.90;;;;;;5119853;28;20035;-77
2023/01/27 03:58:21;;;;;;;4.90;2.22;;;5.80;99.90;;;;;;5118237;28;20084;-77
2023/01/27 04:01:11;;;;;;;6.53;2.33;;;5.90;99.90;;;;;;5118546;28;20047;-78
2023/01/27 04:09:10;;;;;;;5.15;2.20;;;6.00;99.90;;;;;;5119563;28;20059;-77
2023/01/27 04:11:54;;;;;;;3.42;2.15;;;5.90;99.90;;;;;;5119288;28;20051;-77
2023/01/27 04:14:30;;;;;;;5.13;1.73;;;5.80;99.90;;;;;;5119450;28;20160;-77
2023/01/27 04:17:05;;;;;;;5.22;1.90;;;5.80;99.90;;;;;;5118496;28;20404;-77
2023/01/27 04:19:32;;;;;;;6.77;2.07;;;5.80;99.90;;;;;;5119478;28;20043;-77
2023/01/27 04:21:59;;;;;;;6.80;1.80;;;5.80;99.90;;;;;;5119124;28;20906;-77
2023/01/27 04:24:24;;;;;;;4.25;2.00;;;5.90;99.90;;;;;;5119017;28;20447;-77
2023/01/27 04:26:53;;;;;;;4.93;1.98;;;5.80;99.90;;;;;;5119443;28;20039;-77
2023/01/27 04:29:20;;;;;;;4.63;1.92;;;5.80;99.90;;;;;;5119337;28;20065;-77
2023/01/27 04:31:46;;;;;;;3.05;2.00;;;5.90;99.90;;;;;;5119167;28;20039;-77
2023/01/27 04:34:12;;;;;;;2.70;2.00;;;5.80;99.90;;;;;;5118420;28;20032;-77
2023/01/27 04:36:39;;;;;;;4.13;2.22;;;5.80;99.90;;;;;;5119413;28;20075;-77
2023/01/27 04:39:05;;;;;;;6.15;2.70;;;5.90;99.90;;;;;;5119760;28;20045;-77
2023/01/27 04:41:31;;;;;;;4.15;2.40;;;5.80;99.90;;;;;;5119338;28;20122;-78
2023/01/27 04:43:56;;;;;;;3.90;2.40;;;5.90;99.90;;;;;;5118486;28;20043;-78
2023/01/27 04:46:22;;;;;;;3.60;2.47;;;5.90;99.90;;;;;;5119349;28;20122;-77
2023/01/27 04:48:48;;;;;;;5.05;2.83;;;5.80;99.90;;;;;;5118422;28;20036;-78
2023/01/27 04:51:13;;;;;;;7.82;2.80;;;5.90;99.90;;;;;;5119825;28;20078;-78
2023/01/27 04:53:39;;;;;;;4.72;2.63;;;6.00;99.90;;;;;;5118985;27;20043;-77
2023/01/27 04:56:13;;;;;;;8.57;3.17;;;5.90;99.90;;;;;;5100944;28;20341;-77
2023/01/27 04:58:39;;;;;;;6.57;3.00;;;6.00;99.90;;;;;;5119070;28;20039;-78
2023/01/27 05:01:05;;;;;;;5.60;3.60;;;6.10;99.90;;;;;;5118599;28;20035;-78
2023/01/27 05:03:30;;;;;;;5.50;3.58;;;6.00;99.90;;;;;;5119433;28;20051;-78
2023/01/27 05:05:56;;;;;;;4.90;3.40;;;6.00;99.90;;;;;;5118412;28;20138;-78
2023/01/27 05:08:21;;;;;;;6.70;3.72;;;6.00;99.90;;;;;;5119789;28;20035;-78
2023/01/27 05:10:47;;;;;;;6.97;2.95;;;6.10;99.90;;;;;;5118048;28;20043;-78
2023/01/27 05:13:13;;;;;;;4.45;3.33;;;6.00;99.90;;;;;;5119208;28;20039;-77
2023/01/27 05:15:38;;;;;;;7.18;3.10;;;6.00;99.90;;;;;;5119043;28;20150;-77
2023/01/27 05:18:04;;;;;;;7.60;3.63;;;6.00;99.90;;;;;;5117729;28;20038;-77
2023/01/27 05:20:30;;;;;;;8.77;3.40;;;6.00;99.90;;;;;;5119602;28;20078;-77
2023/01/27 05:23:34;;;;;;;5.53;3.58;;;6.00;99.90;;;;;;5117936;28;20040;-77
2023/01/27 05:25:45;;;;;;;10.75;4.40;;;6.00;99.90;;;;;;5118991;28;20040;-77
2023/01/27 05:28:11;;;;;;;6.38;3.50;;;6.00;99.90;;;;;;5117946;28;20092;-78
2023/01/27 05:30:37;;;;;;;4.95;4.43;;;6.00;99.90;;;;;;5118270;28;20039;-78
2023/01/27 05:33:03;;;;;;;8.68;3.75;;;6.00;99.90;;;;;;5118789;28;20324;-78
2023/01/27 05:35:31;;;;;;;7.32;3.90;;;5.90;99.90;;;;;;5118733;28;20042;-78
2023/01/27 05:37:57;;;;;;;6.93;3.67;;;6.00;99.90;;;;;;5116860;28;20066;-78
2023/01/27 05:40:23;;;;;;;5.20;3.20;;;5.90;99.90;;;;;;5118628;28;20040;-78
2023/01/27 05:42:51;;;;;;;9.95;3.42;;;5.90;99.90;;;;;;5117707;28;20047;-78
2023/01/27 05:45:16;;;;;;;7.97;3.20;;;6.10;99.90;;;;;;5118256;28;20085;-77
2023/01/27 05:47:42;;;;;;;6.18;3.10;;;6.00;99.90;;;;;;5118278;28;20377;-77
2023/01/27 05:50:08;;;;;;;6.05;2.80;;;6.00;99.90;;;;;;5118507;28;20394;-78
2023/01/27 05:52:34;;;;;;;3.90;2.70;;;6.00;99.90;;;;;;5118275;28;20049;-78
2023/01/27 05:54:59;;;;;;;6.53;2.85;;;6.00;99.90;;;;;;5100293;28;20032;-78
2023/01/27 05:57:25;;;;;;;7.63;2.67;;;6.10;99.90;;;;;;5118644;28;20071;-77
2023/01/27 05:59:51;;;;;;;5.35;2.85;;;6.10;99.90;;;;;;5118092;28;20333;-77
2023/01/27 06:02:16;;;;;;;5.20;3.30;;;6.20;99.90;;;;;;5117899;28;20339;-78
2023/01/27 06:04:42;;;;;;;5.32;2.80;;;6.20;99.90;;;;;;5118600;28;20374;-78
2023/01/27 06:07:07;;;;;;;9.68;2.70;;;6.30;99.90;;;;;;5121396;28;20433;-78
2023/01/27 06:09:33;;;;;;;3.15;2.65;;;6.30;99.90;;;;;;5121614;28;20436;-78
2023/01/27 06:11:59;;;;;;;4.78;2.88;;;6.40;99.90;;;;;;5122163;28;20035;-78
2023/01/27 06:14:24;;;;;;;7.57;2.60;;;6.30;99.90;;;;;;5121579;28;20325;-77
2023/01/27 06:16:52;;;;;;;3.05;2.58;;;6.30;99.90;;;;;;5122367;28;20408;-78
2023/01/27 06:19:18;;;;;;;4.28;2.90;;;6.20;99.90;;;;;;5121269;28;20046;-78
2023/01/27 06:21:43;;;;;;;3.30;2.78;;;6.30;99.90;;;;;;5122059;28;20035;-78
2023/01/27 06:24:09;;;;;;;5.30;2.90;;;6.10;99.90;;;;;;5122061;28;20042;-78
2023/01/27 06:26:35;;;;;;;4.47;3.35;;;6.20;99.90;;;;;;5122205;28;20326;-78
2023/01/27 06:29:01;;;;;;;4.35;2.45;;;6.20;99.90;;;;;;5120600;28;20040;-78
2023/01/27 06:31:27;;;;;;;5.05;2.95;;;6.20;99.90;;;;;;5121887;28;20043;-77
2023/01/27 06:33:52;;;;;;;7.18;3.05;;;6.30;99.90;;;;;;5120873;28;20054;-78
2023/01/27 06:36:20;;;;;;;4.45;2.60;;;6.20;99.90;;;;;;5122177;28;20115;-77
2023/01/27 06:38:47;;;;;;;4.68;2.70;;;6.10;99.90;;;;;;5121921;28;20073;-78
2023/01/27 06:41:12;;;;;;;4.70;2.67;;;6.30;99.90;;;;;;5121952;28;20123;-78
2023/01/27 06:43:38;;;;;;;3.45;2.25;;;6.30;99.90;;;;;;5121928;27;20082;-78
2023/01/27 06:46:04;;;;;;;5.00;2.30;;;6.30;99.90;;;;;;5121814;28;20064;-78
2023/01/27 06:48:29;;;;;;;7.20;2.70;;;6.30;99.90;;;;;;5121378;28;20035;-78
2023/01/27 06:50:56;;;;;;;5.25;2.88;;;6.20;99.90;;;;;;5121586;28;20040;-78
2023/01/27 06:53:22;;;;;;;6.10;2.97;;;6.20;99.90;;;;;;5121131;28;20047;-78
2023/01/27 06:55:53;;;;;;;3.65;3.20;;;6.30;99.90;;;;;;5121778;28;20366;-78
2023/01/27 06:58:19;;;;;;;5.72;2.90;;;6.30;99.90;;;;;;5121947;28;20043;-78
2023/01/27 07:00:44;;;;;;;5.95;2.85;;;6.30;99.90;;;;;;5121277;28;20036;-78
2023/01/27 07:03:11;;;;;;;6.78;2.83;;;6.20;99.90;;;;;;5103286;28;20047;-78
2023/01/27 07:05:38;;;;;;;5.38;3.03;;;6.00;99.90;;;;;;5121607;28;20377;-78
2023/01/27 07:08:04;;;;;;;5.35;3.10;;;6.00;99.90;;;;;;5121836;28;20119;-77
2023/01/27 07:10:30;;;;;;;8.18;3.10;;;6.00;99.90;;;;;;5120597;28;20082;-77
2023/01/27 07:13:10;;;;;;;7.53;3.60;;;6.00;99.90;;;;;;5120798;28;20042;-78
2023/01/27 07:15:36;;;;;;;4.47;3.60;;;6.00;99.90;;;;;;5121175;28;20059;-77
2023/01/27 07:18:02;;;;;;;4.63;3.75;;;6.00;99.90;;;;;;5120534;28;20035;-78
2023/01/27 07:20:29;;;;;;;5.43;3.55;;;5.90;99.90;;;;;;5121006;28;20032;-78
2023/01/27 07:22:58;;;;;;;6.85;3.72;;;5.80;99.90;;;;;;5121197;28;20040;-78
2023/01/27 07:25:25;;;;;;;8.27;3.50;;;5.80;99.90;;;;;;5121162;28;20067;-78
2023/01/27 07:27:50;;;;;;;7.75;4.10;;;5.80;99.90;;;;;;5121947;27;20124;-77
2023/01/27 07:30:16;;;;;;;5.85;4.05;;;5.70;99.90;;;;;;5120180;28;20052;-78
2023/01/27 07:32:42;;;;;;;5.72;4.15;;;5.70;99.90;;;;;;5121218;28;20096;-78
2023/01/27 07:35:08;;;;;;;6.82;4.20;;;5.80;99.90;;;;;;5120717;27;20032;-78
2023/01/27 07:37:36;;;;;;;8.10;4.68;;;5.80;99.90;;;;;;5120216;28;20452;-78
2023/01/27 07:40:02;;;;;;;8.70;4.85;;;5.90;99.90;;;;;;5120856;28;20036;-78
2023/01/27 07:42:28;;;;;;;7.65;4.60;;;5.90;99.90;;;;;;5120344;28;20100;-78
2023/01/27 07:44:54;;;;;;;6.38;4.40;;;5.90;99.90;;;;;;5119186;28;20359;-79
2023/01/27 07:47:19;;;;;;;7.45;4.70;;;6.00;99.90;;;;;;5120165;28;20119;-78
2023/01/27 07:49:45;;;;;;;12.18;4.93;;;6.10;99.90;;;;;;5120243;28;20067;-78
2023/01/27 07:52:11;;;;;;;11.02;4.65;;;6.00;99.90;;;;;;5119963;28;20122;-79
2023/01/27 07:54:36;;;;;;;7.18;4.55;;;6.10;99.90;;;;;;5120099;28;20074;-78
2023/01/27 07:57:02;;;;;;;7.63;4.70;;;6.00;99.90;;;;;;5118848;28;20043;-78
2023/01/27 07:59:28;;;;;;;7.93;4.95;;;6.10;99.90;;;;;;5118808;28;20036;-78
2023/01/27 08:01:53;;;;;;;7.00;4.95;;;6.10;99.90;;;;;;5119930;28;20035;-78
2023/01/27 08:04:19;;;;;;;8.02;4.68;;;6.20;99.90;;;;;;5120077;28;20044;-78
2023/01/27 08:06:45;;;;;;;10.75;4.90;;;6.20;99.90;;;;;;5120595;28;20054;-79
2023/01/27 08:09:10;;;;;;;7.55;4.68;;;6.20;99.90;;;;;;5121036;28;20046;-78
2023/01/27 08:11:36;;;;;;;10.85;5.35;;;6.30;99.90;;;;;;5118619;28;20043;-78
2023/01/27 08:14:02;;;;;;;11.73;5.30;;;6.30;99.90;;;;;;5119562;28;20038;-78
2023/01/27 08:16:28;;;;;;;10.48;5.63;;;6.20;99.90;;;;;;5119412;28;20366;-78
2023/01/27 08:18:54;;;;;;;10.77;5.25;;;6.30;99.90;;;;;;5118188;28;20139;-78
2023/01/27 08:21:20;;;;;;;12.57;5.63;;;6.20;99.90;;;;;;5119944;28;20075;-78
2023/01/27 08:23:46;;;;;;;5.65;5.15;;;6.20;99.90;;;;;;5120014;28;20040;-78
2023/01/27 08:26:11;;;;;;;8.55;5.20;;;6.10;99.90;;;;;;5119551;28;20043;-78
2023/01/27 08:28:38;;;;;;;14.55;6.05;;;6.20;99.90;;;;;;5119055;28;20324;-78
2023/01/27 08:31:07;;;;;;;9.40;5.30;;;6.30;99.90;;;;;;5119543;28;20114;-78
2023/01/27 08:33:33;;;;;;;8.70;5.97;;;6.30;99.90;;;;;;5119623;28;20444;-78
2023/01/27 08:36:09;;;;;;;6.88;5.75;;;6.30;99.90;;;;;;5119984;28;20036;-79
2023/01/27 08:38:36;;;;;;;9.77;6.20;;;6.30;99.90;;;;;;5119707;28;20048;-78
2023/01/27 08:41:08;;;;;;;10.35;5.38;;;6.20;99.90;;;;;;5119677;28;20040;-78
2023/01/27 08:43:34;;;;;;;8.98;6.00;;;6.40;99.90;;;;;;5119579;28;20040;-78
2023/01/27 08:46:00;;;;;;;7.18;5.40;;;6.50;99.90;;;;;;5119394;28;20328;-79
2023/01/27 08:48:28;;;;;;;9.20;5.00;;;6.60;99.90;;;;;;5119141;28;20057;-78
2023/01/27 08:50:55;;;;;;;9.05;5.10;;;6.40;99.90;;;;;;5118456;28;20123;-78
2023/01/27 08:53:21;;;;;;;13.18;5.28;;;6.20;99.90;;;;;;5119416;28;20036;-79
2023/01/27 08:55:46;;;;;;;8.50;5.70;;;6.30;99.90;;;;;;5119554;28;20039;-78
2023/01/27 08:58:12;;;;;;;6.53;5.80;;;6.30;99.90;;;;;;5119159;28;20036;-78
2023/01/27 09:00:38;;;;;;;8.13;6.32;;;6.40;99.90;;;;;;5100071;28;20038;-78
2023/01/27 09:03:03;;;;;;;9.38;6.15;;;6.40;99.90;;;;;;5119092;28;20135;-78
2023/01/27 09:05:29;;;;;;;6.93;6.05;;;6.30;99.90;;;;;;5119411;28;20028;-78
2023/01/27 09:07:55;;;;;;;10.75;6.40;;;6.30;99.90;;;;;;5118912;28;20027;-78
2023/01/27 09:10:21;;;;;;;8.25;7.05;;;6.20;99.90;;;;;;5119044;28;20408;-79
2023/01/27 09:12:46;;;;;;;11.57;6.90;;;6.30;99.90;;;;;;5119155;28;20044;-79
2023/01/27 09:15:13;;;;;;;9.15;7.28;;;6.30;99.90;;;;;;5118690;28;20039;-78
2023/01/27 09:17:39;;;;;;;10.98;7.60;;;6.50;99.90;;;;;;5118687;28;20386;-79
2023/01/27 09:20:06;;;;;;;9.43;7.00;;;6.50;99.90;;;;;;5117379;28;20084;-78
2023/01/27 09:22:32;;;;;;;12.77;6.38;;;6.40;99.90;;;;;;5118606;28;20039;-78
2023/01/27 09:24:57;;;;;;;7.90;6.15;;;6.30;99.90;;;;;;5118424;28;20050;-78
2023/01/27 09:27:23;;;;;;;7.45;6.30;;;6.40;99.90;;;;;;5117114;28;20040;-74
2023/01/27 09:29:48;;;;;;;12.85;7.70;;;6.40;99.90;;;;;;5116193;28;20042;-68
2023/01/27 09:32:14;;;;;;;11.18;6.70;;;6.40;99.90;;;;;;5116787;28;20047;-69
2023/01/27 09:34:40;;;;;;;8.52;6.63;;;6.30;99.90;;;;;;5116190;28;20157;-69
2023/01/27 09:37:11;;;;;;;8.02;6.30;;;6.40;99.90;;;;;;5117024;28;20072;-69
2023/01/27 09:39:52;;;;;;;9.90;5.80;;;6.40;99.90;;;;;;5117776;28;20050;-69
2023/01/27 09:42:58;;;;;;;6.05;5.55;;;6.30;99.90;;;;;;5121467;28;20043;-69
2023/01/27 09:45:53;;;;;;;11.93;5.90;;;6.40;99.90;;;;;;5120061;28;20051;-69
2023/01/27 09:48:47;;;;;;;9.25;5.78;;;6.40;99.90;;;;;;5112901;28;20048;-70
2023/01/27 09:51:46;;;;;;;9.32;5.60;;;6.40;99.90;;;;;;5113025;28;20089;-69
2023/01/27 09:54:20;;;;;;;9.70;5.82;;;6.40;99.90;;;;;;5112254;28;20039;-70
2023/01/27 09:56:59;;;;;;;8.90;6.00;;;6.40;99.90;;;;;;5121179;28;20091;-70
2023/01/27 09:59:43;;;;;;;8.00;6.38;;;6.40;99.90;;;;;;5121376;28;20035;-70
2023/01/27 10:02:33;;;;;;;5.85;5.35;;;6.30;99.90;;;;;;5120698;28;20046;-68
2023/01/27 10:05:08;;;;;;;6.05;5.18;;;6.40;99.90;;;;;;5119699;28;20078;-69
2023/01/27 10:08:11;;;;;;;6.43;5.15;;;6.50;99.90;;;;;;5120898;28;20040;-70
2023/01/27 10:10:55;;;;;;;7.47;5.22;;;6.50;99.90;;;;;;5120803;28;20344;-69
2023/01/27 10:13:31;;;;;;;9.68;5.43;;;6.50;99.90;;;;;;5120806;28;20361;-68
2023/01/27 10:16:16;;;;;;;5.38;4.88;;;6.50;99.90;;;;;;5120839;28;20046;-68
2023/01/27 10:18:45;;;;;;;6.03;4.32;;;6.60;99.90;;;;;;5120699;28;20106;-69
2023/01/27 10:21:16;;;;;;;5.53;4.50;;;6.60;99.90;;;;;;5120687;28;20309;-69
2023/01/27 10:24:00;;;;;;;6.05;4.18;;;6.50;99.90;;;;;;5120674;28;20083;-69
2023/01/27 10:26:37;;;;;;;7.05;4.00;;;6.60;99.90;;;;;;5120671;28;20106;-69
2023/01/27 10:29:42;;;;;;;6.47;4.25;;;6.80;99.90;;;;;;5120547;28;20075;-69
2023/01/27 10:32:40;;;;;;;7.53;4.10;;;6.80;99.90;;;;;;5118829;28;20165;-70
2023/01/27 10:35:15;;;;;;;4.60;3.60;;;6.90;99.90;;;;;;5120387;28;20035;-69
2023/01/27 10:38:04;;;;;;;4.57;2.80;;;6.90;99.90;;;;;;5120067;28;20059;-69
2023/01/27 10:40:33;;;;;;;5.38;2.90;;;6.80;99.90;;;;;;5120377;28;20104;-68
2023/01/27 10:43:07;;;;;;;4.03;3.28;;;6.70;99.90;;;;;;5120271;28;20035;-72
2023/01/27 10:45:45;;;;;;;3.20;2.67;;;6.80;99.90;;;;;;5119953;28;20429;-70
2023/01/27 10:48:17;;;;;;;5.43;2.85;;;6.80;99.90;;;;;;5120191;28;20114;-69
2023/01/27 10:50:48;;;;;;;4.60;3.65;;;6.80;99.90;;;;;;5120016;28;20073;-68
2023/01/27 10:53:31;;;;;;;5.82;3.92;;;6.70;99.90;;;;;;5119092;28;20046;-68
2023/01/27 10:56:07;;;;;;;4.50;2.80;;;6.80;99.90;;;;;;5119735;28;20336;-68
2023/01/27 10:58:54;;;;;;;7.43;3.55;;;6.70;99.90;;;;;;5118955;28;20376;-69
2023/01/27 11:01:24;;;;;;;;;;;6.70;99.90;;;;;;5119781;28;20055;-69
2023/01/27 11:04:10;;;;;;;3.75;3.42;;;6.40;99.90;;;;;;5119763;28;19915;-69
2023/01/27 11:06:39;;;;;;;6.13;4.10;;;6.40;99.90;;;;;;5119911;28;20110;-68
2023/01/27 11:09:28;;;;;;;7.50;4.40;;;6.40;99.90;;;;;;5119730;28;20039;-68
2023/01/27 11:11:59;;;;;;;5.45;4.32;;;6.50;99.90;;;;;;5115685;28;20056;-68
2023/01/27 11:14:28;;;;;;;5.65;4.75;;;6.60;99.90;;;;;;5119415;28;20071;-68
2023/01/27 11:17:31;;;;;;;7.47;5.65;;;6.60;99.90;;;;;;5119620;28;20035;-68
2023/01/27 11:20:28;;;;;;;8.15;5.55;;;6.60;99.90;;;;;;5119411;28;20126;-70
2023/01/27 11:23:08;;;;;;;7.47;5.55;;;6.30;99.90;;;;;;5119561;28;20110;-68
2023/01/27 11:26:10;;;;;;;6.20;5.60;;;6.20;99.90;;;;;;5119502;28;20039;-69
2023/01/27 11:28:49;;;;;;;6.53;5.70;;;6.40;99.90;;;;;;5119107;28;20135;-68
2023/01/27 11:31:41;;;;;;;8.55;5.88;;;6.20;99.90;;;;;;5117938;28;20046;-68
2023/01/27 11:34:20;;;;;;;6.57;5.60;;;6.10;99.90;;;;;;5119013;28;20039;-68
2023/01/27 11:36:46;;;;;;;5.72;5.20;;;6.00;99.90;;;;;;5118972;27;20034;-69
2023/01/27 11:39:14;;;;;;;6.75;6.05;;;6.20;99.90;;;;;;5119218;28;20118;-69
2023/01/27 11:41:53;;;;;;;6.05;5.25;;;6.10;99.90;;;;;;5118866;28;20122;-68
2023/01/27 11:44:20;;;;;;;6.10;5.53;;;6.20;99.90;;;;;;5119082;28;20035;-68
2023/01/27 11:46:48;;;;;;;6.97;6.00;;;6.20;99.90;;;;;;5118735;28;20436;-69
2023/01/27 11:49:22;;;;;;;7.07;5.63;;;6.30;99.90;;;;;;5118643;28;20432;-68
2023/01/27 11:51:50;;;;;;;7.32;5.50;;;6.30;99.90;;;;;;5118891;28;20039;-68
2023/01/27 11:54:26;;;;;;;5.72;4.72;;;6.30;99.90;;;;;;5118909;28;20040;-69
2023/01/27 11:56:52;;;;;;;5.97;5.38;;;6.50;99.90;;;;;;5118942;28;20039;-71
2023/01/27 11:59:24;;;;;;;7.78;5.15;;;6.70;99.90;;;;;;5118507;28;20424;-71
2023/01/27 12:02:06;;;;;;;4.85;4.05;;;6.80;99.90;;;;;;5118437;28;20048;-73
2023/01/27 12:04:37;;;;;;;3.30;3.00;;;6.80;99.90;;;;;;5117652;28;20099;-71
2023/01/27 12:07:13;;;;;;;4.55;3.47;;;6.70;99.90;;;;;;5118592;28;20071;-72
2023/01/27 12:09:40;;;;;;;4.78;3.00;;;6.50;99.90;;;;;;5117657;28;20123;-72
2023/01/27 12:12:11;;;;;;;4.28;3.28;;;6.50;99.90;;;;;;5117492;28;20036;-71
2023/01/27 12:14:36;;;;;;;4.53;3.47;;;6.50;99.90;;;;;;5100200;28;20048;-71
2023/01/27 12:17:04;;;;;;;6.40;4.30;;;6.50;99.90;;;;;;5118170;28;20036;-71
2023/01/27 12:19:39;;;;;;;5.57;4.85;;;6.40;99.90;;;;;;5117045;28;20047;-72
2023/01/27 12:22:47;;;;;;;6.00;4.90;;;6.50;99.90;;;;;;5118396;28;20040;-71
2023/01/27 12:25:43;;;;;;;7.90;5.40;;;6.40;99.90;;;;;;5117997;28;20092;-69
2023/01/27 12:28:32;;;;;;;8.30;5.87;;;6.10;99.90;;;;;;5118305;28;20043;-71
2023/01/27 12:31:10;;;;;;;7.38;5.45;;;6.20;99.90;;;;;;5117667;28;20044;-71
2023/01/27 12:33:41;;;;;;;5.72;4.60;;;6.40;99.90;;;;;;5118171;28;20043;-71
2023/01/27 12:36:21;;;;;;;4.18;2.70;;;6.40;99.90;;;;;;5117789;28;20382;-71
2023/01/27 12:38:57;;;;;;;3.80;2.83;;;6.30;99.90;;;;;;5117594;28;20453;-72
2023/01/27 12:41:41;;;;;;;3.33;2.60;;;6.30;99.90;;;;;;5118070;28;20379;-71
2023/01/27 12:44:21;;;;;;;3.17;2.28;;;6.30;99.90;;;;;;5117704;28;20439;-71
2023/01/27 12:47:14;;;;;;;3.03;2.50;;;6.50;99.90;;;;;;5117946;28;20085;-71
2023/01/27 12:49:43;;;;;;;2.92;2.53;;;6.40;99.90;;;;;;5117874;28;20039;-71
2023/01/27 12:52:18;;;;;;;3.05;2.65;;;6.30;99.90;;;;;;5116533;28;20401;-72
2023/01/27 12:54:43;;;;;;;4.38;3.20;;;6.30;99.90;;;;;;5116790;28;20040;-71
2023/01/27 12:57:16;;;;;;;4.57;3.42;;;6.20;99.90;;;;;;5117690;28;20034;-71
2023/01/27 12:59:51;;;;;;;5.72;3.58;;;6.30;99.90;;;;;;5117451;28;20421;-71
2023/01/27 13:02:25;;;;;;;4.38;3.38;;;6.30;99.90;;;;;;5115968;28;20497;-71
2023/01/27 13:05:02;;;;;;;4.85;3.78;;;6.40;99.90;;;;;;5117622;28;20416;-71
2023/01/27 13:07:28;;;;;;;;;;;6.60;99.90;;;;;;5117835;28;20051;-70
2023/01/27 13:10:01;;;;;;;5.55;3.50;;;6.70;99.90;;;;;;5117267;28;19919;-71
2023/01/27 13:12:28;;;;;;;5.18;3.92;;;6.70;99.90;;;;;;5117385;28;20070;-70
2023/01/27 13:14:58;;;;;;;4.10;3.70;;;6.70;99.90;;;;;;5117051;28;20111;-70
2023/01/27 13:17:46;;;;;;;4.50;3.72;;;6.80;99.90;;;;;;5117435;28;20027;-70
2023/01/27 13:20:21;;;;;;;5.15;4.57;;;6.80;99.90;;;;;;5117082;28;20443;-71
2023/01/27 13:23:00;;;;;;;6.20;4.50;;;6.70;99.90;;;;;;5117417;28;20066;-71
2023/01/27 13:25:36;;;;;;;5.93;4.35;;;6.60;99.90;;;;;;5117371;28;20036;-70
2023/01/27 13:28:06;;;;;;;5.05;4.50;;;6.60;99.90;;;;;;5117332;28;20047;-70
2023/01/27 13:30:41;;;;;;;5.97;4.30;;;6.60;99.90;;;;;;5116852;28;20424;-70
2023/01/27 13:33:30;;;;;;;4.93;4.03;;;6.80;99.90;;;;;;5117189;28;20040;-72
2023/01/27 13:36:07;;;;;;;4.43;4.03;;;6.50;99.90;;;;;;5116949;28;20119;-71
2023/01/27 13:38:46;;;;;;;3.90;3.58;;;6.60;99.90;;;;;;5116667;28;20052;-70
2023/01/27 13:41:26;;;;;;;4.88;3.50;;;6.50;99.90;;;;;;5117197;28;20043;-70
2023/01/27 13:44:02;;;;;;;4.20;3.80;;;6.40;99.90;;;;;;5098887;28;20429;-71
2023/01/27 13:46:32;;;;;;;4.53;4.13;;;6.40;99.90;;;;;;5116926;28;20038;-70
2023/01/27 13:49:02;;;;;;;5.07;4.25;;;6.50;99.90;;;;;;5115731;28;20042;-70